Time;durP1;ratioP1;P1;durP2;ratioP2;P2;SDS_P1;SDS_P2;PMS_P1;PMS_P2;Temp;Humidity;BMP_temperature;BMP_pressure;BME280_temperature;BME280_humidity;BME280_pressure;Samples;Min_cycle;Max_cycle;Signal;HPM_P1;HPM_P2
2023/08/06 00:00:00;;;;;;;7.65;6.70;;;;;;;13.97;100.00;100058.09;4917869;29;20062;-85
2023/08/06 00:02:29;;;;;;;8.27;6.32;;;;;;;13.96;100.00;100054.59;4942579;28;20046;-82
2023/08/06 00:04:56;;;;;;;8.10;6.65;;;;;;;14.01;100.00;100063.19;4936302;28;20480;-82
2023/08/06 00:07:25;;;;;;;11.07;7.38;;;;;;;14.02;100.00;100056.16;4940361;29;20043;-89
2023/08/06 00:09:52;;;;;;;9.00;6.93;;;;;;;14.00;100.00;100053.59;4933741;28;20515;-86
2023/08/06 00:12:19;;;;;;;6.95;6.18;;;;;;;14.02;100.00;100053.53;4923441;29;20046;-88
2023/08/06 00:14:45;;;;;;;6.20;5.45;;;;;;;14.02;100.00;100050.91;4935224;28;20047;-81
2023/08/06 00:17:12;;;;;;;6.28;4.90;;;;;;;13.99;100.00;100053.66;4938923;29;20047;-85
2023/08/06 00:19:39;;;;;;;6.60;5.80;;;;;;;13.98;100.00;100041.38;4930454;28;20043;-89
2023/08/06 00:22:05;;;;;;;5.25;3.60;;;;;;;13.96;100.00;100041.44;4933756;29;20044;-82
2023/08/06 00:24:32;;;;;;;4.40;3.67;;;;;;;13.90;100.00;100039.00;4930909;28;20128;-82
2023/08/06 00:26:59;;;;;;;4.70;3.28;;;;;;;13.92;100.00;100038.94;4945959;28;20043;-83
2023/08/06 00:29:25;;;;;;;3.95;3.65;;;;;;;13.92;100.00;100034.53;4935302;28;20043;-82
2023/08/06 00:31:53;;;;;;;3.58;3.25;;;;;;;14.00;100.00;100032.53;4960789;28;20127;-81
2023/08/06 00:34:20;;;;;;;3.85;3.55;;;;;;;14.01;100.00;100034.22;4943948;28;20507;-85
2023/08/06 00:36:47;;;;;;;3.05;2.83;;;;;;;13.99;100.00;100016.81;4954430;28;20058;-84
2023/08/06 00:39:14;;;;;;;3.45;3.15;;;;;;;13.95;100.00;100013.41;4953141;28;20294;-81
2023/08/06 00:41:40;;;;;;;4.15;3.75;;;;;;;14.00;100.00;100015.88;4932977;28;20047;-83
2023/08/06 00:44:10;;;;;;;4.35;3.38;;;;;;;14.03;100.00;100014.00;4944546;29;20677;-82
2023/08/06 00:46:37;;;;;;;5.30;3.00;;;;;;;14.06;100.00;100008.63;4944828;28;20137;-86
2023/08/06 00:49:04;;;;;;;3.95;3.30;;;;;;;14.11;100.00;100002.38;4914916;29;20055;-84
2023/08/06 00:51:31;;;;;;;3.70;3.20;;;;;;;14.16;100.00;100000.44;4934301;28;20051;-85
2023/08/06 00:53:57;;;;;;;7.45;4.75;;;;;;;14.15;100.00;99990.81;4937305;28;20062;-82
2023/08/06 00:56:27;;;;;;;4.63;3.95;;;;;;;14.14;100.00;99983.81;4936392;29;20078;-81
2023/08/06 00:58:54;;;;;;;4.57;4.20;;;;;;;14.10;100.00;99980.44;4945038;28;20114;-81
2023/08/06 01:01:24;;;;;;;6.05;4.32;;;;;;;14.10;100.00;99969.06;4938785;28;20121;-83
2023/08/06 01:03:53;;;;;;;4.75;4.15;;;;;;;14.05;100.00;99970.09;4919159;28;20055;-83
2023/08/06 01:06:39;;;;;;;6.60;4.53;;;;;;;14.04;100.00;99970.09;4928212;29;20134;-82
2023/08/06 01:09:28;;;;;;;5.78;4.20;;;;;;;14.03;100.00;99973.69;4934266;29;20085;-86
2023/08/06 01:12:15;;;;;;;4.63;4.22;;;;;;;14.00;100.00;99956.22;4927375;28;20161;-82
2023/08/06 01:15:29;;;;;;;5.75;4.43;;;;;;;14.02;100.00;99957.00;4932661;28;20139;-81
2023/08/06 01:17:56;;;;;;;8.90;5.35;;;;;;;14.05;100.00;99958.69;4923866;28;20070;-90
2023/08/06 01:20:22;;;;;;;6.03;5.10;;;;;;;13.97;100.00;99956.31;4932712;29;20067;-83
2023/08/06 01:22:49;;;;;;;7.75;5.85;;;;;;;14.03;100.00;99957.88;4931488;28;20375;-82
2023/08/06 01:25:17;;;;;;;6.07;5.47;;;;;;;14.00;100.00;99950.09;4939540;29;20473;-84
2023/08/06 01:27:49;;;;;;;8.57;6.55;;;;;;;13.99;100.00;99949.22;4927785;28;20071;-83
2023/08/06 01:30:35;;;;;;;8.90;6.18;;;;;;;14.01;100.00;99957.06;4931342;29;20129;-83
2023/08/06 01:33:06;;;;;;;7.07;6.13;;;;;;;14.02;100.00;99953.53;4946747;28;20118;-83
2023/08/06 01:35:34;;;;;;;7.25;5.60;;;;;;;13.99;100.00;99946.59;4937704;28;20154;-84
2023/08/06 01:38:03;;;;;;;6.90;4.65;;;;;;;14.00;100.00;99947.44;4936838;29;20448;-82
2023/08/06 01:40:30;;;;;;;8.27;6.15;;;;;;;13.99;100.00;99938.72;4926726;28;20111;-87
2023/08/06 01:42:57;;;;;;;6.57;5.93;;;;;;;13.95;100.00;99946.75;4944445;28;20054;-83
2023/08/06 01:45:23;;;;;;;12.05;6.38;;;;;;;13.90;100.00;99941.66;4938536;29;20047;-83
2023/08/06 01:47:50;;;;;;;8.82;6.32;;;;;;;13.92;100.00;99941.59;4937693;28;20051;-84
2023/08/06 01:50:17;;;;;;;9.50;6.85;;;;;;;13.92;100.00;99941.59;4941535;28;20054;-83
2023/08/06 01:52:43;;;;;;;7.13;5.53;;;;;;;13.93;100.00;99919.66;4936185;28;20047;-82
2023/08/06 01:55:10;;;;;;;8.48;7.40;;;;;;;13.90;100.00;99912.72;4946639;28;20070;-83
2023/08/06 01:57:36;;;;;;;6.47;5.88;;;;;;;13.85;100.00;99918.13;4932115;28;20153;-85
2023/08/06 02:00:04;;;;;;;6.97;6.07;;;;;;;13.85;100.00;99915.50;4929801;28;20043;-84
2023/08/06 02:02:33;;;;;;;10.30;7.28;;;;;;;13.83;100.00;99919.09;4953486;28;20114;-85
2023/08/06 02:05:00;;;;;;;7.38;5.60;;;;;;;13.82;100.00;99918.25;4926024;28;20125;-82
2023/08/06 02:07:27;;;;;;;8.13;6.90;;;;;;;13.79;100.00;99923.59;4930315;29;20054;-87
2023/08/06 02:09:56;;;;;;;7.78;6.43;;;;;;;13.77;100.00;99925.44;4941994;28;20446;-82
2023/08/06 02:12:22;;;;;;;8.85;7.47;;;;;;;13.76;100.00;99921.06;4929341;29;20500;-82
2023/08/06 02:14:49;;;;;;;8.35;7.15;;;;;;;13.72;100.00;99928.19;4936216;28;20043;-83
2023/08/06 02:17:16;;;;;;;7.18;6.47;;;;;;;13.64;100.00;99927.59;4928996;29;20130;-84
2023/08/06 02:19:43;;;;;;;7.68;6.68;;;;;;;13.57;100.00;99924.31;4945096;28;20044;-83
2023/08/06 02:22:10;;;;;;;9.77;7.80;;;;;;;13.56;100.00;99925.22;4938409;29;20467;-83
2023/08/06 02:24:36;;;;;;;10.43;7.95;;;;;;;13.52;100.00;99923.63;4938803;28;20043;-83
2023/08/06 02:27:03;;;;;;;8.85;7.18;;;;;;;13.48;100.00;99929.00;4943204;28;20542;-82
2023/08/06 02:29:29;;;;;;;9.98;7.90;;;;;;;13.45;100.00;99921.25;4937032;28;20039;-84
2023/08/06 02:31:56;;;;;;;9.02;6.93;;;;;;;13.41;100.00;99931.00;4936933;28;20055;-84
2023/08/06 02:34:22;;;;;;;13.85;8.80;;;;;;;13.34;100.00;99919.78;4941012;29;20040;-82
2023/08/06 02:36:49;;;;;;;12.40;8.23;;;;;;;13.28;100.00;99924.38;4937148;28;20146;-81
2023/08/06 02:39:15;;;;;;;11.38;8.68;;;;;;;13.25;100.00;99917.44;4938281;29;20054;-82
2023/08/06 02:41:42;;;;;;;10.73;8.20;;;;;;;13.21;100.00;99915.84;4939971;28;20044;-82
2023/08/06 02:44:11;;;;;;;10.23;7.97;;;;;;;13.18;100.00;99908.03;4936112;29;20431;-85
2023/08/06 02:46:40;;;;;;;11.43;7.57;;;;;;;13.15;100.00;99908.13;4933710;28;20051;-86
2023/08/06 02:49:07;;;;;;;13.35;9.00;;;;;;;13.16;100.00;99901.97;4932021;29;20551;-82
2023/08/06 02:51:34;;;;;;;10.82;7.88;;;;;;;13.18;100.00;99905.41;4931996;29;20067;-85
2023/08/06 02:54:01;;;;;;;10.70;7.65;;;;;;;13.19;100.00;99900.13;4934996;29;20051;-82
2023/08/06 02:56:27;;;;;;;11.52;9.07;;;;;;;13.20;100.00;99900.97;4938164;28;20600;-85
2023/08/06 02:58:54;;;;;;;14.85;8.82;;;;;;;13.23;100.00;99890.34;4915368;28;20533;-84
2023/08/06 03:01:23;;;;;;;10.75;8.15;;;;;;;13.27;100.00;99885.84;4950412;28;20069;-83
2023/08/06 03:03:49;;;;;;;13.85;9.77;;;;;;;13.33;100.00;99872.53;4945970;28;20568;-83
2023/08/06 03:06:16;;;;;;;13.77;9.02;;;;;;;13.40;100.00;99871.44;4960321;28;20053;-82
2023/08/06 03:08:43;;;;;;;12.40;9.40;;;;;;;13.40;100.00;99867.03;4917765;28;20158;-86
2023/08/06 03:11:10;;;;;;;11.05;7.50;;;;;;;13.42;100.00;99866.13;4932470;28;20123;-83
2023/08/06 03:13:36;;;;;;;14.40;8.70;;;;;;;13.36;100.00;99860.19;4938074;28;20047;-83
2023/08/06 03:16:03;;;;;;;10.23;8.55;;;;;;;13.35;100.00;99861.03;4933907;28;20051;-83
2023/08/06 03:18:30;;;;;;;11.43;7.78;;;;;;;13.33;100.00;99854.13;4952511;28;20047;-91
2023/08/06 03:20:56;;;;;;;9.27;7.82;;;;;;;13.27;100.00;99844.69;4931751;29;20558;-84
2023/08/06 03:23:23;;;;;;;9.98;8.23;;;;;;;13.24;100.00;99842.13;4908987;29;20047;-82
2023/08/06 03:25:50;;;;;;;11.30;8.25;;;;;;;13.22;100.00;99841.34;4940196;28;20170;-82
2023/08/06 03:28:16;;;;;;;9.57;7.63;;;;;;;13.20;100.00;99844.00;4940536;29;20039;-84
2023/08/06 03:30:43;;;;;;;8.13;7.30;;;;;;;13.20;100.00;99840.53;4914068;28;20062;-84
2023/08/06 03:33:09;;;;;;;11.15;8.60;;;;;;;13.19;100.00;99838.78;4934595;29;20122;-82
2023/08/06 03:35:36;;;;;;;11.98;8.80;;;;;;;13.19;100.00;99833.53;4924588;28;20510;-85
2023/08/06 03:38:02;;;;;;;13.88;9.98;;;;;;;13.18;100.00;99831.81;4932413;28;20046;-82
2023/08/06 03:40:32;;;;;;;10.82;8.68;;;;;;;13.16;100.00;99831.88;4931282;29;20047;-84
2023/08/06 03:42:58;;;;;;;14.70;8.55;;;;;;;13.14;100.00;99832.84;4914103;28;20438;-83
2023/08/06 03:45:25;;;;;;;14.52;10.02;;;;;;;13.14;100.00;99831.09;4939409;29;20051;-86
2023/08/06 03:47:53;;;;;;;12.07;8.73;;;;;;;13.13;100.00;99834.63;4917270;28;20057;-82
2023/08/06 03:50:21;;;;;;;13.13;9.05;;;;;;;13.11;100.00;99838.19;4932890;29;20447;-83
2023/08/06 03:52:48;;;;;;;14.30;10.50;;;;;;;13.08;100.00;99834.75;4921932;28;20079;-82
2023/08/06 03:55:17;;;;;;;14.13;9.98;;;;;;;13.08;100.00;99828.66;4927798;28;20061;-86
2023/08/06 03:57:43;;;;;;;14.45;8.68;;;;;;;13.10;100.00;99826.81;4911428;28;20480;-86
2023/08/06 04:00:10;;;;;;;14.80;10.07;;;;;;;13.13;100.00;99818.84;4929341;29;20050;-84
2023/08/06 04:02:38;;;;;;;13.10;9.07;;;;;;;13.15;100.00;99818.78;4917130;28;20050;-90
2023/08/06 04:05:06;;;;;;;15.10;9.48;;;;;;;13.16;100.00;99810.00;4929874;29;20040;-82
2023/08/06 04:07:33;;;;;;;16.75;10.30;;;;;;;13.17;100.00;99812.56;4953915;28;20050;-92
2023/08/06 04:10:05;;;;;;;13.45;9.95;;;;;;;13.14;100.00;99810.06;4919349;28;20446;-87
2023/08/06 04:12:32;;;;;;;11.30;8.70;;;;;;;13.11;100.00;99807.50;4933929;28;20054;-91
2023/08/06 04:14:59;;;;;;;10.52;8.15;;;;;;;13.07;100.00;99805.91;4944749;29;20031;-82
2023/08/06 04:17:26;;;;;;;10.93;8.15;;;;;;;13.02;100.00;99803.44;4914218;29;20126;-82
2023/08/06 04:19:58;;;;;;;14.60;9.35;;;;;;;13.00;100.00;99807.03;4925913;28;20071;-84
2023/08/06 04:22:24;;;;;;;13.82;9.30;;;;;;;12.97;100.00;99812.38;4938989;29;20130;-85
2023/08/06 04:24:51;;;;;;;14.73;9.60;;;;;;;12.93;100.00;99813.38;4934732;28;20058;-82
2023/08/06 04:27:20;;;;;;;13.00;9.43;;;;;;;12.93;100.00;99816.00;4924245;29;20042;-83
2023/08/06 04:29:48;;;;;;;14.35;9.82;;;;;;;12.93;100.00;99819.47;4921415;28;20040;-86
2023/08/06 04:32:15;;;;;;;14.05;9.80;;;;;;;12.94;100.00;99821.19;4926511;29;20144;-82
2023/08/06 04:34:43;;;;;;;14.98;9.85;;;;;;;12.93;100.00;99816.00;4936175;28;20686;-82
2023/08/06 04:37:10;;;;;;;14.82;10.75;;;;;;;12.93;100.00;99816.84;4957051;28;20133;-82
2023/08/06 04:39:36;;;;;;;13.50;9.55;;;;;;;12.95;100.00;99816.81;4930348;28;20052;-88
2023/08/06 04:42:03;;;;;;;16.88;10.27;;;;;;;12.96;100.00;99818.53;4928006;28;20425;-82
2023/08/06 04:44:30;;;;;;;16.38;10.35;;;;;;;12.97;100.00;99820.25;4937998;29;20126;-82
2023/08/06 04:46:57;;;;;;;15.80;9.40;;;;;;;12.98;100.00;99816.72;4929770;28;20742;-88
2023/08/06 04:49:26;;;;;;;16.73;9.88;;;;;;;13.01;100.00;99822.72;4933623;29;20050;-82
2023/08/06 04:51:53;;;;;;;15.38;9.88;;;;;;;13.05;100.00;99820.88;4933574;28;20051;-83
2023/08/06 04:54:22;;;;;;;16.63;10.32;;;;;;;13.10;100.00;99820.72;4929370;29;20124;-82
2023/08/06 04:56:48;;;;;;;12.20;9.30;;;;;;;13.18;100.00;99830.06;4932792;28;20127;-83
2023/08/06 04:59:15;;;;;;;16.88;8.93;;;;;;;13.23;100.00;99832.53;4933180;29;20059;-84
2023/08/06 05:01:44;;;;;;;11.63;7.90;;;;;;;13.29;100.00;99828.84;4934013;28;20043;-84
2023/08/06 05:04:11;;;;;;;13.65;8.38;;;;;;;13.32;100.00;99831.38;4946970;28;20038;-82
2023/08/06 05:06:38;;;;;;;10.30;8.55;;;;;;;13.34;100.00;99825.16;4929782;28;20048;-91
2023/08/06 05:09:07;;;;;;;14.80;8.57;;;;;;;13.37;100.00;99819.81;4941668;28;20525;-82
2023/08/06 05:11:36;;;;;;;11.73;7.90;;;;;;;13.40;100.00;99822.34;4922809;29;20054;-92
2023/08/06 05:14:03;;;;;;;11.95;8.38;;;;;;;13.45;100.00;99824.81;4934674;29;20184;-82
2023/08/06 05:16:29;;;;;;;9.80;6.95;;;;;;;13.47;100.00;99819.53;4916786;29;20055;-88
2023/08/06 05:18:56;;;;;;;9.38;7.88;;;;;;;13.48;100.00;99821.22;4942431;28;20047;-84
2023/08/06 05:21:28;;;;;;;8.85;7.18;;;;;;;13.51;100.00;99819.34;4931764;29;20054;-83
2023/08/06 05:23:55;;;;;;;7.80;6.97;;;;;;;13.55;100.00;99822.72;4947267;28;20039;-83
2023/08/06 05:26:22;;;;;;;11.25;8.27;;;;;;;13.54;100.00;99832.38;4935014;29;20103;-85
2023/08/06 05:28:51;;;;;;;9.55;7.30;;;;;;;13.53;100.00;99822.78;4957569;28;20044;-82
2023/08/06 05:31:18;;;;;;;10.18;7.10;;;;;;;13.56;100.00;99832.34;4941501;29;20047;-82
2023/08/06 05:33:45;;;;;;;9.77;7.35;;;;;;;13.55;100.00;99822.72;4938031;28;20059;-87
2023/08/06 05:36:14;;;;;;;8.43;6.95;;;;;;;13.60;100.00;99825.19;4942262;28;20047;-83
2023/08/06 05:38:40;;;;;;;8.82;6.55;;;;;;;13.61;100.00;99819.03;4950119;28;20055;-84
2023/08/06 05:41:07;;;;;;;8.98;6.78;;;;;;;13.65;100.00;99815.38;4934816;29;20035;-83
2023/08/06 05:43:36;;;;;;;7.30;6.05;;;;;;;13.72;100.00;99819.50;4925544;29;20039;-83
2023/08/06 05:46:04;;;;;;;8.02;6.15;;;;;;;13.77;100.00;99820.22;4920277;28;20046;-83
2023/08/06 05:48:34;;;;;;;7.32;6.30;;;;;;;13.83;100.00;99821.75;4946645;28;20039;-84
2023/08/06 05:51:03;;;;;;;8.48;6.38;;;;;;;13.88;100.00;99827.72;4915991;29;20047;-83
2023/08/06 05:53:30;;;;;;;8.82;6.22;;;;;;;13.92;100.00;99820.56;4941739;28;20043;-88
2023/08/06 05:55:57;;;;;;;8.60;6.40;;;;;;;13.97;100.00;99823.91;4934073;28;20043;-83
2023/08/06 05:58:26;;;;;;;7.68;5.35;;;;;;;14.00;100.00;99829.03;4936927;28;20034;-83
2023/08/06 06:00:55;;;;;;;7.43;5.70;;;;;;;14.05;100.00;99824.47;4918781;28;20123;-83
2023/08/06 06:03:21;;;;;;;6.28;5.28;;;;;;;14.12;100.00;99825.97;4927881;28;20046;-83
2023/08/06 06:05:50;;;;;;;9.02;5.80;;;;;;;14.21;100.00;99827.41;4918753;28;20043;-83
2023/08/06 06:08:17;;;;;;;6.70;4.88;;;;;;;14.19;100.00;99821.34;4951693;28;20376;-83
2023/08/06 06:10:44;;;;;;;6.25;5.03;;;;;;;14.20;100.00;99813.38;4911658;28;20044;-83
2023/08/06 06:13:10;;;;;;;6.88;4.53;;;;;;;14.27;100.00;99810.53;4949643;28;20043;-83
2023/08/06 06:15:38;;;;;;;7.50;5.15;;;;;;;14.33;100.00;99810.28;4939264;28;20506;-83
2023/08/06 06:18:04;;;;;;;6.47;4.15;;;;;;;14.33;100.00;99805.88;4952848;28;20058;-83
2023/08/06 06:20:33;;;;;;;5.72;4.53;;;;;;;14.35;100.00;99808.44;4943760;29;20053;-83
2023/08/06 06:23:00;;;;;;;4.43;3.40;;;;;;;14.39;100.00;99803.00;4927492;29;20051;-82
2023/08/06 06:25:27;;;;;;;6.40;4.28;;;;;;;14.42;100.00;99803.78;4946791;29;20081;-92
2023/08/06 06:27:53;;;;;;;6.07;4.47;;;;;;;14.44;100.00;99804.59;4942603;28;20051;-86
2023/08/06 06:30:23;;;;;;;4.30;3.33;;;;;;;14.45;100.00;99804.53;4932640;28;20126;-87
2023/08/06 06:32:52;;;;;;;4.78;3.13;;;;;;;14.49;100.00;99803.50;4949647;28;20058;-83
2023/08/06 06:35:19;;;;;;;6.55;4.30;;;;;;;14.56;100.00;99796.22;4918019;29;20248;-85
2023/08/06 06:37:45;;;;;;;4.18;3.00;;;;;;;14.60;100.00;99799.59;4936598;28;20067;-88
2023/08/06 06:40:15;;;;;;;3.55;3.08;;;;;;;14.69;100.00;99794.00;4933405;29;20049;-82
2023/08/06 06:42:41;;;;;;;4.32;2.65;;;;;;;14.78;100.00;99792.78;4936677;28;20051;-84
2023/08/06 06:45:09;;;;;;;3.05;2.75;;;;;;;14.81;100.00;99792.63;4935664;29;20035;-85
2023/08/06 06:47:37;;;;;;;7.15;2.47;;;;;;;14.81;100.00;99796.16;4943401;29;20138;-83
2023/08/06 06:50:04;;;;;;;2.53;2.30;;;;;;;14.88;100.00;99797.59;4938814;28;20051;-83
2023/08/06 06:52:31;;;;;;;3.03;2.42;;;;;;;14.98;100.00;99795.47;4939900;29;20102;-83
2023/08/06 06:54:57;;;;;;;2.55;1.48;;;;;;;15.03;100.00;99792.63;4935713;28;20137;-83
2023/08/06 06:57:25;;;;;;;1.73;1.63;;;;;;;15.05;100.00;99788.16;4935607;29;20086;-84
2023/08/06 06:59:52;;;;;;;3.13;1.88;;;;;;;15.12;100.00;99789.63;4921208;28;20051;-84
2023/08/06 07:02:19;;;;;;;3.33;2.33;;;;;;;15.29;100.00;99788.91;4921525;28;20119;-83
2023/08/06 07:04:44;;;;;;;3.42;2.38;;;;;;;15.46;100.00;99779.41;4943187;28;20047;-83
2023/08/06 07:07:14;;;;;;;4.30;1.98;;;;;;;15.70;100.00;99785.41;4943638;29;20332;-84
2023/08/06 07:09:40;;;;;;;3.47;2.47;;;;;;;16.05;100.00;99783.00;4942294;28;20497;-83
2023/08/06 07:12:08;;;;;;;2.42;1.98;;;;;;;16.43;100.00;99783.00;4940936;28;20054;-83
2023/08/06 07:14:35;;;;;;;1.98;1.88;;;;;;;16.82;100.00;99782.00;4936820;28;20047;-84
2023/08/06 07:17:03;;;;;;;4.10;1.70;;;;;;;17.39;100.00;99777.47;4927832;28;20039;-82
2023/08/06 07:19:30;;;;;;;1.55;1.40;;;;;;;18.02;100.00;99784.81;4929037;29;20049;-82
2023/08/06 07:21:58;;;;;;;4.03;1.63;;;;;;;18.41;100.00;99782.69;4908852;29;20119;-83
2023/08/06 07:24:25;;;;;;;1.10;1.00;;;;;;;18.67;100.00;99782.09;4922238;29;20102;-83
2023/08/06 07:26:52;;;;;;;1.33;1.20;;;;;;;18.99;99.19;99782.09;4938450;28;20472;-88
2023/08/06 07:29:21;;;;;;;1.38;1.33;;;;;;;19.29;100.00;99783.84;4935817;29;20040;-82
2023/08/06 07:31:50;;;;;;;3.58;1.38;;;;;;;19.66;96.35;99778.16;4922287;29;20055;-82
2023/08/06 07:34:16;;;;;;;2.38;1.30;;;;;;;20.19;94.75;99774.94;4928419;28;20475;-82
2023/08/06 07:36:45;;;;;;;1.58;1.48;;;;;;;20.51;91.56;99775.56;4940452;28;20052;-83
2023/08/06 07:39:16;;;;;;;1.85;1.20;;;;;;;20.74;90.71;99768.78;4936263;29;20062;-81
2023/08/06 07:41:43;;;;;;;1.10;1.00;;;;;;;21.23;87.26;99780.59;4957129;28;20049;-82
2023/08/06 07:44:09;;;;;;;1.45;1.35;;;;;;;21.49;85.00;99776.16;4945575;29;20045;-82
2023/08/06 07:46:36;;;;;;;1.10;1.00;;;;;;;21.93;84.99;99768.75;4944792;28;20055;-82
2023/08/06 07:49:05;;;;;;;1.55;1.10;;;;;;;21.90;82.24;99774.28;4951378;28;20121;-83
2023/08/06 07:51:34;;;;;;;1.08;0.93;;;;;;;21.51;80.95;99776.09;4926175;29;20043;-82
2023/08/06 07:54:00;;;;;;;3.42;1.02;;;;;;;21.69;82.15;99781.13;4949900;29;20118;-83
2023/08/06 07:56:27;;;;;;;2.42;0.82;;;;;;;22.07;80.63;99775.75;4944416;29;20059;-82
2023/08/06 07:58:54;;;;;;;1.42;0.90;;;;;;;22.19;79.17;99782.03;4943586;29;20443;-89
2023/08/06 08:01:22;;;;;;;2.85;0.98;;;;;;;22.33;80.34;99782.84;4965456;28;20047;-81
2023/08/06 08:03:49;;;;;;;2.45;1.30;;;;;;;22.43;78.16;99790.09;4943232;28;20114;-82
2023/08/06 08:06:15;;;;;;;4.72;1.20;;;;;;;22.15;78.76;99780.56;4948715;29;20047;-82
2023/08/06 08:08:42;;;;;;;2.85;1.23;;;;;;;21.96;77.62;99783.66;4946703;28;20073;-82
2023/08/06 08:11:56;;;;;;;1.85;0.90;;;;;;;21.76;78.53;99777.06;4933656;29;20039;-83
2023/08/06 08:14:23;;;;;;;1.10;1.10;;;;;;;21.95;79.05;99772.16;4949303;29;20054;-81
2023/08/06 08:17:08;;;;;;;1.27;1.00;;;;;;;22.03;77.43;99768.94;4938269;28;20054;-81
2023/08/06 08:19:42;;;;;;;;;;;;;;;22.17;74.79;99775.09;4932273;29;20051;-81
2023/08/06 08:22:11;;;;;;;0.63;0.60;;;;;;;22.44;76.19;99769.63;4941787;29;19923;-81
2023/08/06 08:24:40;;;;;;;1.20;0.98;;;;;;;22.68;73.75;99772.28;4954651;28;20050;-82
2023/08/06 08:27:07;;;;;;;0.88;0.70;;;;;;;22.70;75.50;99777.53;4920366;29;20132;-83
2023/08/06 08:29:34;;;;;;;0.88;0.88;;;;;;;22.79;74.89;99758.19;4949797;29;20122;-81
2023/08/06 08:32:04;;;;;;;1.13;1.00;;;;;;;22.72;72.83;99767.59;4942561;29;20126;-82
2023/08/06 08:34:34;;;;;;;3.15;1.00;;;;;;;22.61;74.59;99761.22;4955768;28;20075;-81
2023/08/06 08:37:01;;;;;;;0.75;0.75;;;;;;;22.28;74.75;99764.50;4946447;29;20122;-81
2023/08/06 08:39:31;;;;;;;2.42;1.63;;;;;;;21.88;76.29;99767.38;4944023;29;20040;-81
2023/08/06 08:41:58;;;;;;;1.05;1.05;;;;;;;21.89;76.87;99769.03;4926093;28;20070;-81
2023/08/06 08:44:28;;;;;;;1.98;1.00;;;;;;;22.26;75.67;99769.09;4949072;28;20480;-81
2023/08/06 08:46:56;;;;;;;2.08;0.75;;;;;;;22.83;73.74;99761.44;4942242;29;20055;-81
2023/08/06 08:49:25;;;;;;;1.45;0.90;;;;;;;23.55;70.74;99763.16;4947943;29;20058;-82
2023/08/06 08:51:54;;;;;;;0.88;0.88;;;;;;;24.01;65.96;99769.41;4940305;29;20059;-81
2023/08/06 08:54:24;;;;;;;2.58;1.27;;;;;;;24.14;67.44;99770.13;4952204;28;20053;-81
2023/08/06 08:56:50;;;;;;;1.65;1.10;;;;;;;24.57;66.44;99763.13;4928593;28;20122;-80
2023/08/06 08:59:18;;;;;;;1.25;1.13;;;;;;;25.23;64.06;99765.69;4956500;29;20053;-82
2023/08/06 09:01:51;;;;;;;1.25;0.80;;;;;;;25.77;61.40;99765.59;4943162;29;20106;-80
2023/08/06 09:04:36;;;;;;;1.10;0.75;;;;;;;26.46;57.83;99763.19;4947129;29;20070;-81
2023/08/06 09:07:04;;;;;;;1.40;1.30;;;;;;;26.69;56.13;99753.06;4949182;28;20082;-81
2023/08/06 09:09:37;;;;;;;1.95;0.70;;;;;;;27.37;56.29;99752.19;4953970;29;20058;-81
2023/08/06 09:12:15;;;;;;;1.55;1.30;;;;;;;27.86;51.19;99752.06;4947893;29;20074;-81
2023/08/06 09:14:43;;;;;;;1.30;1.05;;;;;;;28.00;51.59;99743.53;4947524;29;20051;-89
2023/08/06 09:17:12;;;;;;;1.95;0.98;;;;;;;28.33;49.20;99748.44;4943906;28;20038;-80
2023/08/06 09:19:46;;;;;;;1.17;1.15;;;;;;;28.28;48.44;99748.06;4927633;29;20487;-81
2023/08/06 09:22:15;;;;;;;3.85;1.20;;;;;;;28.02;49.65;99746.09;4933985;29;20046;-82
2023/08/06 09:24:44;;;;;;;1.00;1.00;;;;;;;27.77;50.97;99745.75;4939909;29;20043;-81
2023/08/06 09:27:18;;;;;;;1.65;1.13;;;;;;;28.08;49.42;99747.31;4939818;29;20051;-82
2023/08/06 09:29:47;;;;;;;1.27;0.90;;;;;;;28.69;49.24;99740.44;4955601;28;20057;-84
2023/08/06 09:32:17;;;;;;;1.02;1.02;;;;;;;29.34;45.19;99742.84;4940297;29;20047;-90
2023/08/06 09:34:44;;;;;;;1.05;1.05;;;;;;;29.67;43.34;99737.69;4944759;29;20046;-82
2023/08/06 09:37:11;;;;;;;0.90;0.90;;;;;;;29.46;44.18;99742.59;4925564;29;20099;-82
2023/08/06 09:39:42;;;;;;;0.70;0.70;;;;;;;29.88;42.27;99739.13;4936589;28;20047;-81
2023/08/06 09:42:08;;;;;;;2.65;0.65;;;;;;;30.75;41.24;99744.31;4934005;28;20530;-81
2023/08/06 09:44:35;;;;;;;2.17;1.10;;;;;;;30.95;41.30;99735.88;4936063;29;20052;-82
2023/08/06 09:47:04;;;;;;;1.30;0.93;;;;;;;31.54;39.08;99732.97;4948028;28;20050;-83
2023/08/06 09:49:33;;;;;;;1.60;1.00;;;;;;;31.99;39.36;99734.22;4944015;29;20043;-81
2023/08/06 09:52:01;;;;;;;0.70;0.70;;;;;;;32.63;38.22;99735.91;4962746;28;20135;-81
2023/08/06 09:54:35;;;;;;;2.55;0.70;;;;;;;33.62;36.91;99726.06;4947222;28;20110;-82
2023/08/06 09:57:01;;;;;;;0.93;0.90;;;;;;;33.84;34.64;99729.72;4924577;29;20075;-81
2023/08/06 09:59:29;;;;;;;0.77;0.77;;;;;;;33.19;34.47;99734.78;4930917;29;20490;-83
2023/08/06 10:01:56;;;;;;;1.05;1.05;;;;;;;32.70;34.64;99724.31;4939856;28;20091;-82
2023/08/06 10:04:24;;;;;;;0.88;0.88;;;;;;;32.26;36.43;99720.41;4938376;29;20122;-84
2023/08/06 10:06:51;;;;;;;0.82;0.73;;;;;;;32.12;35.45;99721.94;4921880;29;20059;-81
2023/08/06 10:09:18;;;;;;;1.30;1.20;;;;;;;31.07;37.84;99723.75;4951714;28;20498;-82
2023/08/06 10:11:53;;;;;;;1.67;0.88;;;;;;;30.19;38.42;99717.00;4933510;28;20047;-82
2023/08/06 10:17:38;;;;;;;0.77;0.77;;;;;;;29.95;34.73;99718.63;4950547;28;20046;-82
2023/08/06 10:20:16;;;;;;;2.03;0.77;;;;;;;30.43;35.46;99718.06;4946349;29;20039;-82
2023/08/06 10:22:46;;;;;;;0.82;0.82;;;;;;;29.97;37.24;99715.75;4925181;28;20403;-82
2023/08/06 10:25:19;;;;;;;0.98;0.98;;;;;;;28.81;38.18;99711.44;4936981;29;20043;-82
2023/08/06 10:27:57;;;;;;;0.95;0.80;;;;;;;27.79;41.18;99714.16;4950213;28;20050;-85
2023/08/06 10:30:34;;;;;;;2.67;1.00;;;;;;;27.29;43.66;99701.84;4961657;28;20511;-82
2023/08/06 10:33:23;;;;;;;0.95;0.95;;;;;;;27.62;41.29;99696.97;4931880;28;20051;-82
2023/08/06 10:35:50;;;;;;;1.75;0.88;;;;;;;26.63;44.36;99698.06;4935638;28;20067;-80
2023/08/06 10:38:22;;;;;;;2.05;0.90;;;;;;;25.53;46.34;99693.56;4946026;29;20067;-83
2023/08/06 10:40:55;;;;;;;1.80;1.23;;;;;;;24.61;47.65;99698.53;4937487;28;20055;-82
2023/08/06 10:43:37;;;;;;;;;;;;;;;24.56;47.83;99692.72;4938722;29;20094;-89
2023/08/06 10:46:22;;;;;;;1.65;1.02;;;;;;;26.75;44.41;99690.75;4934757;29;19922;-82
2023/08/06 10:48:50;;;;;;;2.33;1.30;;;;;;;28.81;39.95;99695.28;4957831;28;20050;-84
2023/08/06 10:51:16;;;;;;;0.90;0.85;;;;;;;30.45;37.11;99694.47;4941282;29;20053;-81
2023/08/06 10:53:49;;;;;;;1.48;0.80;;;;;;;29.86;37.34;99690.72;4944225;28;20058;-82
2023/08/06 10:56:19;;;;;;;;;;;;;;;28.23;41.25;99689.31;4926382;29;20131;-82
2023/08/06 10:58:48;;;;;;;1.30;1.20;;;;;;;28.84;40.88;99681.50;4940766;28;19969;-91
2023/08/06 11:01:15;;;;;;;1.25;1.25;;;;;;;31.14;37.11;99675.25;4943438;28;20101;-83
2023/08/06 11:03:45;;;;;;;1.10;1.10;;;;;;;32.66;33.51;99675.09;4926520;28;20074;-85
2023/08/06 11:06:19;;;;;;;1.90;1.08;;;;;;;31.44;34.49;99675.53;4919987;29;20142;-82
2023/08/06 11:08:57;;;;;;;1.40;1.10;;;;;;;29.83;37.58;99674.03;4940649;28;20043;-86
2023/08/06 11:11:24;;;;;;;1.65;1.20;;;;;;;28.12;40.74;99668.88;4934075;29;20036;-81
2023/08/06 11:13:54;;;;;;;0.70;0.70;;;;;;;27.13;41.75;99672.06;4932981;29;20082;-83
2023/08/06 11:16:27;;;;;;;3.70;1.00;;;;;;;26.31;44.28;99660.78;4932424;29;20039;-83
2023/08/06 11:18:56;;;;;;;0.95;0.95;;;;;;;26.04;45.89;99662.31;4932122;28;20051;-81
2023/08/06 11:21:26;;;;;;;1.30;0.98;;;;;;;27.27;42.25;99666.22;4938640;29;20048;-82
2023/08/06 11:23:53;;;;;;;1.30;1.05;;;;;;;29.40;37.75;99662.34;4912992;29;20044;-82
2023/08/06 11:26:23;;;;;;;1.25;1.08;;;;;;;31.49;32.39;99651.50;4922295;29;20047;-82
2023/08/06 11:28:57;;;;;;;1.10;1.10;;;;;;;32.57;31.19;99649.09;4939634;28;20546;-81
2023/08/06 11:31:25;;;;;;;1.60;1.27;;;;;;;32.74;30.38;99656.06;4937768;29;20476;-80
2023/08/06 11:33:53;;;;;;;2.50;1.15;;;;;;;33.63;30.43;99651.78;4935457;28;20050;-84
2023/08/06 11:36:34;;;;;;;1.13;1.10;;;;;;;33.99;29.32;99644.72;4932316;29;20079;-87